Terminal Aerodrome Forecast
Issued by NWS

Current Version | Previous Version | Text Only | Print | Product List | Glossary On
Versions: 1 2 3 4 5 6 7 8 9 10 11 12
000
FTUS43 KILX 012320
TAFCMI
TAF
KCMI 012320Z 0200/0224 22005KT P6SM SCT250
     FM021400 22010KT P6SM BKN250
     FM021800 21014G20KT P6SM BKN250=

USA.gov is the U.S. government's official web portal to all federal, state and local government web resources and services.